createdAt,value
2022-11-29T00:00:41.601Z,4.57
2022-11-29T00:01:41.618Z,4.57
2022-11-29T00:02:41.699Z,4.56
2022-11-29T00:03:41.633Z,4.58
2022-11-29T00:04:41.979Z,4.57
2022-11-29T00:05:41.654Z,4.59
2022-11-29T00:06:41.671Z,4.58
2022-11-29T00:07:41.730Z,4.58
2022-11-29T00:08:41.687Z,4.60
2022-11-29T00:09:41.704Z,4.59
2022-11-29T00:10:41.718Z,4.60
2022-11-29T00:11:41.723Z,4.60
2022-11-29T00:12:41.740Z,4.61
2022-11-29T00:13:41.748Z,4.58
2022-11-29T00:14:42.069Z,4.58
2022-11-29T00:15:41.779Z,4.56
2022-11-29T00:16:41.827Z,4.59
2022-11-29T00:17:41.787Z,4.56
2022-11-29T00:18:41.803Z,4.56
2022-11-29T00:19:41.813Z,4.56
2022-11-29T00:20:41.829Z,4.57
2022-11-29T00:21:41.835Z,4.56
2022-11-29T00:22:41.849Z,4.55
2022-11-29T00:23:41.858Z,4.55
2022-11-29T00:24:42.173Z,4.56
2022-11-29T00:25:41.890Z,4.55
2022-11-29T00:26:41.906Z,4.55
2022-11-29T00:27:41.919Z,4.56
2022-11-29T00:28:41.933Z,4.56
2022-11-29T00:29:41.942Z,4.54
2022-11-29T00:30:41.985Z,4.54
2022-11-29T00:31:41.969Z,4.51
2022-11-29T00:32:41.977Z,4.52
2022-11-29T00:33:41.995Z,4.52
2022-11-29T00:34:42.379Z,4.53
2022-11-29T00:35:42.007Z,4.52
2022-11-29T00:36:42.023Z,4.51
2022-11-29T00:37:42.040Z,4.50
2022-11-29T00:38:42.052Z,4.53
2022-11-29T00:39:42.065Z,4.53
2022-11-29T00:40:42.085Z,4.54
2022-11-29T00:41:42.099Z,4.54
2022-11-29T00:42:42.108Z,4.53
2022-11-29T00:43:42.113Z,4.52
2022-11-29T00:44:42.429Z,4.53
2022-11-29T00:45:42.167Z,4.56
2022-11-29T00:46:42.141Z,4.54
2022-11-29T00:47:42.155Z,4.54
2022-11-29T00:48:42.164Z,4.52
2022-11-29T00:49:42.180Z,4.53
2022-11-29T00:50:42.194Z,4.52
2022-11-29T00:51:42.214Z,4.50
2022-11-29T00:52:42.220Z,4.51
2022-11-29T00:53:42.239Z,4.53
2022-11-29T00:54:42.535Z,4.49
2022-11-29T00:55:42.257Z,4.50
2022-11-29T00:56:42.263Z,4.49
2022-11-29T00:57:42.278Z,4.50
2022-11-29T00:58:42.283Z,4.48
2022-11-29T00:59:42.301Z,4.50
2022-11-29T01:00:42.311Z,4.50
2022-11-29T01:01:42.377Z,4.49
2022-11-29T01:02:42.368Z,4.49
2022-11-29T01:03:42.358Z,4.52
2022-11-29T01:04:42.588Z,4.52
2022-11-29T01:05:42.382Z,4.53
2022-11-29T01:06:42.404Z,4.50
2022-11-29T01:07:42.438Z,4.51
2022-11-29T01:08:42.407Z,4.49
2022-11-29T01:09:42.419Z,4.48
2022-11-29T01:10:42.435Z,4.48
2022-11-29T01:11:42.435Z,4.51
2022-11-29T01:12:42.446Z,4.47
2022-11-29T01:13:42.467Z,4.46
2022-11-29T01:14:42.844Z,4.46
2022-11-29T01:15:42.481Z,4.45
2022-11-29T01:16:42.541Z,4.45
2022-11-29T01:17:42.511Z,4.45
2022-11-29T01:18:42.528Z,4.43
2022-11-29T01:19:46.486Z,4.44
2022-11-29T01:20:42.553Z,4.43
2022-11-29T01:21:42.559Z,4.43
2022-11-29T01:22:42.566Z,4.44
2022-11-29T01:23:42.584Z,4.46
2022-11-29T01:24:42.811Z,4.45
2022-11-29T01:25:42.599Z,4.46
2022-11-29T01:26:42.614Z,4.44
2022-11-29T01:27:42.626Z,4.46
2022-11-29T01:28:42.634Z,4.45
2022-11-29T01:29:42.653Z,4.45
2022-11-29T01:47:43.212Z,4.49
2022-11-29T01:48:42.855Z,4.49
2022-11-29T01:49:42.863Z,4.50
2022-11-29T01:50:42.873Z,4.49
2022-11-29T01:51:42.888Z,4.49
2022-11-29T01:52:42.900Z,4.49
2022-11-29T01:53:42.917Z,4.51
2022-11-29T01:54:43.459Z,4.52
2022-11-29T01:55:42.963Z,4.52
2022-11-29T01:56:42.958Z,4.53
2022-11-29T01:57:42.977Z,4.55
2022-11-29T01:58:42.989Z,4.51
2022-11-29T01:59:42.994Z,4.53
2022-11-29T02:00:43.003Z,4.50
2022-11-29T02:01:43.112Z,4.47
2022-11-29T02:02:43.040Z,4.48
2022-11-29T02:03:43.038Z,4.49
2022-11-29T02:04:43.498Z,4.47
2022-11-29T02:05:43.052Z,4.44
2022-11-29T02:06:43.067Z,4.43
2022-11-29T02:07:43.144Z,4.44
2022-11-29T02:08:43.091Z,4.44
2022-11-29T02:09:43.098Z,4.42
2022-11-29T02:10:43.106Z,4.43
2022-11-29T02:11:43.124Z,4.45
2022-11-29T02:12:43.135Z,4.45
2022-11-29T02:13:43.150Z,4.47
2022-11-29T02:14:43.474Z,4.47
2022-11-29T02:15:43.197Z,4.47
2022-11-29T02:16:43.188Z,4.44
2022-11-29T02:17:43.206Z,4.45
2022-11-29T02:18:43.226Z,4.46
2022-11-29T02:19:43.244Z,4.43
2022-11-29T02:20:43.262Z,4.42
2022-11-29T02:21:43.283Z,4.43
2022-11-29T02:22:43.286Z,4.44
2022-11-29T02:23:43.306Z,4.42
2022-11-29T02:24:43.730Z,4.40
2022-11-29T02:25:43.345Z,4.38
2022-11-29T02:26:43.346Z,4.34
2022-11-29T02:27:43.364Z,4.33
2022-11-29T02:28:43.374Z,4.33
2022-11-29T02:29:43.391Z,4.35
2022-11-29T02:30:43.466Z,4.35
2022-11-29T02:31:43.423Z,4.34
2022-11-29T02:32:43.433Z,4.35
2022-11-29T02:33:43.449Z,4.36
2022-11-29T02:34:43.800Z,4.36
2022-11-29T02:35:43.479Z,4.35
2022-11-29T02:36:43.489Z,4.35
2022-11-29T02:37:43.493Z,4.33
2022-11-29T02:38:43.513Z,4.35
2022-11-29T02:39:43.515Z,4.37
2022-11-29T02:40:43.523Z,4.36
2022-11-29T02:41:43.552Z,4.33
2022-11-29T02:42:43.547Z,4.29
2022-11-29T02:43:43.555Z,4.29
2022-11-29T02:44:43.779Z,4.29
2022-11-29T02:45:43.599Z,4.30
2022-11-29T02:46:43.588Z,4.32
2022-11-29T02:47:43.596Z,4.31
2022-11-29T02:48:43.599Z,4.31
2022-11-29T02:49:43.617Z,4.32
2022-11-29T02:50:43.624Z,4.32
2022-11-29T02:51:43.630Z,4.32
2022-11-29T02:52:43.636Z,4.32
2022-11-29T02:53:43.657Z,4.32
2022-11-29T02:54:43.978Z,4.32
2022-11-29T02:55:43.694Z,4.31
2022-11-29T02:56:43.705Z,4.33
2022-11-29T02:57:43.724Z,4.33
2022-11-29T02:58:43.740Z,4.36
2022-11-29T02:59:43.751Z,4.39
2022-11-29T03:00:43.772Z,4.39
2022-11-29T03:01:43.820Z,4.39
2022-11-29T03:02:43.814Z,4.39
2022-11-29T03:03:43.811Z,4.39
2022-11-29T03:04:44.143Z,4.38
2022-11-29T03:05:43.826Z,4.38
2022-11-29T03:06:43.835Z,4.38
2022-11-29T03:07:43.900Z,4.38
2022-11-29T03:08:43.867Z,4.39
2022-11-29T03:09:43.875Z,4.38
2022-11-29T03:10:43.890Z,4.40
2022-11-29T03:11:43.904Z,4.40
2022-11-29T03:12:43.917Z,4.40
2022-11-29T03:13:43.937Z,4.39
2022-11-29T03:14:44.126Z,4.39
2022-11-29T03:15:43.986Z,4.40
2022-11-29T03:16:43.966Z,4.38
2022-11-29T03:17:43.974Z,4.41
2022-11-29T03:18:43.983Z,4.38
2022-11-29T03:19:43.990Z,4.41
2022-11-29T03:20:43.997Z,4.42
2022-11-29T03:21:44.018Z,4.40
2022-11-29T03:22:44.038Z,4.43
2022-11-29T03:23:44.054Z,4.39
2022-11-29T03:24:44.307Z,4.40
2022-11-29T03:25:44.095Z,4.40
2022-11-29T03:26:44.116Z,4.39
2022-11-29T03:27:44.137Z,4.40
2022-11-29T03:28:44.154Z,4.39
2022-11-29T03:29:44.175Z,4.40
2022-11-29T03:30:44.202Z,4.42
2022-11-29T03:31:44.201Z,4.41
2022-11-29T03:32:44.218Z,4.43
2022-11-29T03:33:44.230Z,4.43
2022-11-29T03:34:44.369Z,4.43
2022-11-29T03:35:44.261Z,4.41
2022-11-29T03:36:44.266Z,4.41
2022-11-29T03:37:44.285Z,4.41
2022-11-29T03:38:44.304Z,4.43
2022-11-29T03:39:44.328Z,4.42
2022-11-29T03:40:44.343Z,4.42
2022-11-29T03:41:44.349Z,4.43
2022-11-29T03:42:44.368Z,4.43
2022-11-29T03:43:44.388Z,4.45
2022-11-29T03:44:44.514Z,4.44
2022-11-29T03:45:44.424Z,4.43
2022-11-29T03:46:44.440Z,4.43
2022-11-29T03:47:44.465Z,4.42
2022-11-29T03:48:44.479Z,4.40
2022-11-29T03:49:44.483Z,4.39
2022-11-29T03:50:44.498Z,4.40
2022-11-29T03:51:44.504Z,4.43
2022-11-29T03:52:44.511Z,4.40
2022-11-29T03:53:44.530Z,4.41
2022-11-29T03:54:44.737Z,4.41
2022-11-29T03:55:44.568Z,4.41
2022-11-29T03:56:44.588Z,4.41
2022-11-29T03:57:44.608Z,4.41
2022-11-29T03:58:44.626Z,4.44
2022-11-29T03:59:44.641Z,4.42
2022-11-29T04:00:44.646Z,4.42
2022-11-29T04:01:44.751Z,4.43
2022-11-29T04:02:44.708Z,4.43
2022-11-29T04:03:44.685Z,4.44
2022-11-29T04:04:44.947Z,4.43
2022-11-29T04:05:44.703Z,4.42
2022-11-29T04:06:44.716Z,4.39
2022-11-29T04:07:44.926Z,4.40
2022-11-29T04:08:44.729Z,4.38
2022-11-29T04:09:44.733Z,4.40
2022-11-29T04:10:44.740Z,4.39
2022-11-29T04:11:44.746Z,4.36
2022-11-29T04:12:44.763Z,4.41
2022-11-29T04:13:44.767Z,4.41
2022-11-29T04:14:44.995Z,4.40
2022-11-29T04:15:44.814Z,4.42
2022-11-29T04:16:44.786Z,4.41
2022-11-29T04:17:44.791Z,4.42
2022-11-29T04:18:44.797Z,4.41
2022-11-29T04:19:44.805Z,4.40
2022-11-29T04:20:48.114Z,4.40
2022-11-29T04:21:44.816Z,4.40
2022-11-29T04:22:44.822Z,4.41
2022-11-29T04:23:44.827Z,4.40
2022-11-29T04:24:45.144Z,4.37
2022-11-29T04:25:44.840Z,4.38
2022-11-29T04:26:44.854Z,4.38
2022-11-29T04:27:44.849Z,4.37
2022-11-29T04:28:44.858Z,4.36
2022-11-29T04:29:44.864Z,4.35
2022-11-29T04:30:44.953Z,4.33
2022-11-29T04:31:44.879Z,4.35
2022-11-29T04:32:44.891Z,4.35
2022-11-29T04:33:44.894Z,4.35
2022-11-29T04:34:45.223Z,4.33
2022-11-29T04:35:44.914Z,4.37
2022-11-29T04:36:44.925Z,4.33
2022-11-29T04:37:44.929Z,4.33
2022-11-29T04:38:44.939Z,4.33
2022-11-29T04:39:44.945Z,4.34
2022-11-29T04:40:44.958Z,4.32
2022-11-29T04:41:44.959Z,4.32
2022-11-29T04:42:44.965Z,4.31
2022-11-29T04:43:44.971Z,4.33
2022-11-29T04:44:45.251Z,4.32
2022-11-29T04:45:44.982Z,4.31
2022-11-29T04:46:45.038Z,4.29
2022-11-29T04:47:44.994Z,4.29
2022-11-29T04:48:45.001Z,4.28
2022-11-29T04:49:45.007Z,4.28
2022-11-29T04:50:45.012Z,4.29
2022-11-29T04:51:45.023Z,4.30
2022-11-29T04:52:45.025Z,4.28
2022-11-29T04:53:45.031Z,4.28
2022-11-29T04:54:45.322Z,4.29
2022-11-29T04:55:45.042Z,4.28
2022-11-29T04:56:45.049Z,4.30
2022-11-29T04:57:45.055Z,4.30
2022-11-29T04:58:45.071Z,4.32
2022-11-29T04:59:45.071Z,4.32
2022-11-29T05:00:45.081Z,4.31
2022-11-29T05:01:45.133Z,4.31
2022-11-29T05:02:45.153Z,4.30
2022-11-29T05:03:46.855Z,4.29
2022-11-29T05:04:45.360Z,4.31
2022-11-29T05:05:45.123Z,4.30
2022-11-29T05:06:45.130Z,4.31
2022-11-29T05:07:45.194Z,4.30
2022-11-29T05:08:45.143Z,4.30
2022-11-29T05:09:45.151Z,4.31
2022-11-29T05:10:45.161Z,4.31
2022-11-29T05:11:45.163Z,4.34
2022-11-29T05:12:45.174Z,4.35
2022-11-29T05:13:45.180Z,4.35
2022-11-29T05:14:45.361Z,4.35
2022-11-29T05:15:45.234Z,4.35
2022-11-29T05:16:45.202Z,4.35
2022-11-29T05:17:45.209Z,4.36
2022-11-29T05:18:45.219Z,4.35
2022-11-29T05:19:45.224Z,4.36
2022-11-29T05:20:45.234Z,4.39
2022-11-29T05:21:45.239Z,4.41
2022-11-29T05:22:45.247Z,4.39
2022-11-29T05:23:45.284Z,4.41
2022-11-29T05:24:45.509Z,4.39
2022-11-29T05:25:45.265Z,4.42
2022-11-29T05:26:45.275Z,4.40
2022-11-29T05:27:45.280Z,4.43
2022-11-29T05:28:45.292Z,4.43
2022-11-29T05:29:45.297Z,4.42
2022-11-29T05:30:45.308Z,4.43
2022-11-29T05:31:45.313Z,4.41
2022-11-29T05:32:45.321Z,4.39
2022-11-29T05:33:45.328Z,4.37
2022-11-29T05:34:45.436Z,4.36
2022-11-29T05:35:45.345Z,4.36
2022-11-29T05:36:45.356Z,4.36
2022-11-29T05:37:45.362Z,4.37
2022-11-29T05:38:45.375Z,4.35
2022-11-29T05:39:45.380Z,4.32
2022-11-29T05:40:45.395Z,4.33
2022-11-29T05:41:45.394Z,4.32
2022-11-29T05:42:45.405Z,4.34
2022-11-29T05:43:45.408Z,4.35
2022-11-29T05:44:45.580Z,4.37
2022-11-29T05:45:45.424Z,4.36
2022-11-29T05:46:45.473Z,4.36
2022-11-29T05:47:45.433Z,4.36
2022-11-29T05:48:45.466Z,4.35
2022-11-29T05:49:45.444Z,4.34
2022-11-29T05:50:45.450Z,4.35
2022-11-29T05:51:45.457Z,4.34
2022-11-29T05:52:45.465Z,4.34
2022-11-29T05:53:45.470Z,4.34
2022-11-29T05:54:45.680Z,4.32
2022-11-29T05:55:45.482Z,4.33
2022-11-29T05:56:45.487Z,4.33
2022-11-29T05:57:45.494Z,4.35
2022-11-29T05:58:45.502Z,4.35
2022-11-29T05:59:45.508Z,4.36
2022-11-29T06:00:45.514Z,4.35
2022-11-29T06:01:45.546Z,4.35
2022-11-29T06:02:45.550Z,4.33
2022-11-29T06:03:45.532Z,4.34
2022-11-29T06:04:45.676Z,4.35
2022-11-29T06:05:45.544Z,4.36
2022-11-29T06:06:45.554Z,4.33
2022-11-29T06:07:45.586Z,4.35
2022-11-29T06:08:45.563Z,4.35
2022-11-29T06:09:45.567Z,4.33
2022-11-29T06:10:45.573Z,4.35
2022-11-29T06:11:45.578Z,4.31
2022-11-29T06:12:45.585Z,4.31
2022-11-29T06:13:45.591Z,4.30
2022-11-29T06:14:45.892Z,4.29
2022-11-29T06:15:45.671Z,4.27
2022-11-29T06:16:45.610Z,4.29
2022-11-29T06:17:45.616Z,4.28
2022-11-29T06:18:45.624Z,4.27
2022-11-29T06:19:45.629Z,4.26
2022-11-29T06:20:45.633Z,4.27
2022-11-29T06:21:45.641Z,4.26
2022-11-29T06:22:45.648Z,4.27
2022-11-29T06:23:45.653Z,4.27
2022-11-29T06:24:45.835Z,4.27
2022-11-29T06:25:45.665Z,4.29
2022-11-29T06:26:45.670Z,4.27
2022-11-29T06:27:45.677Z,4.26
2022-11-29T06:28:45.683Z,4.27
2022-11-29T06:29:45.691Z,4.26
2022-11-29T06:30:45.697Z,4.26
2022-11-29T06:31:45.728Z,4.26
2022-11-29T06:32:45.708Z,4.24
2022-11-29T06:33:45.713Z,4.27
2022-11-29T06:34:45.929Z,4.30
2022-11-29T06:35:45.736Z,4.27
2022-11-29T06:36:45.733Z,4.27
2022-11-29T06:37:45.737Z,4.28
2022-11-29T06:38:45.748Z,4.28
2022-11-29T06:39:45.755Z,4.28
2022-11-29T06:40:45.759Z,4.29
2022-11-29T06:41:45.763Z,4.28
2022-11-29T06:42:45.767Z,4.27
2022-11-29T06:43:45.776Z,4.28
2022-11-29T06:44:46.023Z,4.26
2022-11-29T06:45:45.787Z,4.26
2022-11-29T06:46:45.881Z,4.27
2022-11-29T06:47:45.799Z,4.26
2022-11-29T06:48:45.807Z,4.29
2022-11-29T06:49:45.813Z,4.30
2022-11-29T06:50:45.818Z,4.30
2022-11-29T06:51:45.825Z,4.32
2022-11-29T06:52:45.832Z,4.31
2022-11-29T06:53:45.837Z,4.32
2022-11-29T06:54:46.135Z,4.31
2022-11-29T06:55:45.848Z,4.31
2022-11-29T06:56:45.853Z,4.31
2022-11-29T06:57:45.861Z,4.32
2022-11-29T06:58:45.869Z,4.30
2022-11-29T06:59:45.870Z,4.30
2022-11-29T07:00:45.910Z,4.30
2022-11-29T07:01:45.920Z,4.29
2022-11-29T07:02:45.898Z,4.29
2022-11-29T07:03:45.896Z,4.31
2022-11-29T07:04:46.550Z,4.32
2022-11-29T07:05:45.914Z,4.33
2022-11-29T07:06:45.925Z,4.30
2022-11-29T07:07:46.010Z,4.31
2022-11-29T07:08:45.940Z,4.32
2022-11-29T07:09:45.944Z,4.32
2022-11-29T07:10:45.958Z,4.32
2022-11-29T07:11:45.962Z,4.35
2022-11-29T07:12:45.969Z,4.32
2022-11-29T07:13:45.975Z,4.33
2022-11-29T07:14:46.192Z,4.32
2022-11-29T07:15:45.996Z,4.30
2022-11-29T07:16:45.993Z,4.31
2022-11-29T07:17:45.999Z,4.31
2022-11-29T07:18:46.013Z,4.30
2022-11-29T07:19:46.014Z,4.32
2022-11-29T07:20:46.019Z,4.33
2022-11-29T07:21:46.027Z,4.33
2022-11-29T07:22:46.030Z,4.32
2022-11-29T07:23:46.039Z,4.33
2022-11-29T07:24:46.280Z,4.34
2022-11-29T07:25:46.049Z,4.35
2022-11-29T07:26:46.057Z,4.35
2022-11-29T07:27:46.061Z,4.35
2022-11-29T07:28:46.070Z,4.35
2022-11-29T07:29:46.074Z,4.34
2022-11-29T07:30:46.081Z,4.35
2022-11-29T07:31:46.155Z,4.35
2022-11-29T07:32:50.451Z,4.33
2022-11-29T07:33:46.100Z,4.33
2022-11-29T07:34:46.309Z,4.33
2022-11-29T07:35:46.114Z,4.35
2022-11-29T07:36:46.121Z,4.34
2022-11-29T07:37:46.126Z,4.33
2022-11-29T07:38:46.131Z,4.33
2022-11-29T07:39:46.137Z,4.33
2022-11-29T07:40:46.145Z,4.36
2022-11-29T07:41:46.149Z,4.37
2022-11-29T07:42:46.160Z,4.38
2022-11-29T07:43:46.167Z,4.37
2022-11-29T07:44:46.414Z,4.35
2022-11-29T07:45:46.180Z,4.39
2022-11-29T07:46:46.253Z,4.41
2022-11-29T07:47:46.227Z,4.41
2022-11-29T07:48:46.204Z,4.40
2022-11-29T07:49:46.209Z,4.42
2022-11-29T07:50:46.221Z,4.43
2022-11-29T07:51:46.223Z,4.44
2022-11-29T07:52:46.234Z,4.43
2022-11-29T07:53:46.239Z,4.41
2022-11-29T07:54:46.567Z,4.43
2022-11-29T07:55:46.252Z,4.45
2022-11-29T07:56:46.260Z,4.47
2022-11-29T07:57:46.266Z,4.48
2022-11-29T07:58:46.282Z,4.48
2022-11-29T07:59:46.496Z,4.47
2022-11-29T08:00:46.319Z,4.51
2022-11-29T08:01:46.325Z,4.50
2022-11-29T08:02:46.302Z,4.52
2022-11-29T08:03:46.306Z,4.55
2022-11-29T08:04:46.491Z,4.54
2022-11-29T08:05:46.320Z,4.53
2022-11-29T08:06:46.328Z,4.52
2022-11-29T08:07:46.432Z,4.53
2022-11-29T08:08:46.341Z,4.55
2022-11-29T08:09:46.584Z,4.56
2022-11-29T08:10:46.354Z,4.56
2022-11-29T08:11:46.361Z,4.54
2022-11-29T08:12:46.365Z,4.55
2022-11-29T08:13:46.374Z,4.55
2022-11-29T08:14:46.643Z,4.57
2022-11-29T08:15:46.385Z,4.55
2022-11-29T08:16:46.465Z,4.58
2022-11-29T08:17:46.395Z,4.58
2022-11-29T08:18:46.401Z,4.61
2022-11-29T08:19:46.410Z,4.63
2022-11-29T08:20:46.505Z,4.64
2022-11-29T08:21:46.420Z,4.65
2022-11-29T08:22:46.427Z,4.66
2022-11-29T08:23:46.432Z,4.64
2022-11-29T08:24:46.790Z,4.66
2022-11-29T08:25:46.446Z,4.67
2022-11-29T08:26:46.454Z,4.65
2022-11-29T08:27:46.457Z,4.67
2022-11-29T08:28:46.466Z,4.67
2022-11-29T08:29:46.475Z,4.67
2022-11-29T08:30:46.483Z,4.68
2022-11-29T08:31:46.547Z,4.66
2022-11-29T08:32:51.179Z,4.67
2022-11-29T08:33:46.512Z,4.73
2022-11-29T08:34:46.950Z,4.72
2022-11-29T08:35:46.521Z,4.72
2022-11-29T08:36:46.527Z,4.77
2022-11-29T08:37:46.537Z,4.78
2022-11-29T08:38:46.558Z,4.78
2022-11-29T08:39:46.551Z,4.83
2022-11-29T08:40:46.558Z,4.85
2022-11-29T08:41:46.566Z,4.85
2022-11-29T08:42:46.573Z,4.86
2022-11-29T08:43:46.583Z,4.88
2022-11-29T08:44:46.871Z,4.90
2022-11-29T08:45:46.623Z,4.91
2022-11-29T08:46:46.605Z,4.92
2022-11-29T08:47:46.607Z,4.91
2022-11-29T08:48:46.614Z,4.92
2022-11-29T08:49:46.623Z,4.90
2022-11-29T08:50:46.628Z,4.91
2022-11-29T08:51:46.633Z,4.93
2022-11-29T08:52:46.643Z,4.93
2022-11-29T08:53:46.650Z,4.93
2022-11-29T08:54:46.911Z,4.90
2022-11-29T08:55:46.714Z,4.91
2022-11-29T08:57:46.686Z,4.90
2022-11-29T08:58:46.694Z,4.92
2022-11-29T08:59:46.704Z,4.90
2022-11-29T09:00:46.763Z,4.93
2022-11-29T09:01:46.794Z,4.94
2022-11-29T09:02:46.723Z,4.96
2022-11-29T09:03:46.737Z,4.96
2022-11-29T09:04:46.946Z,4.97
2022-11-29T09:05:46.744Z,4.99
2022-11-29T09:06:46.756Z,5.01
2022-11-29T09:07:46.808Z,5.01
2022-11-29T09:08:46.768Z,5.04
2022-11-29T09:09:46.775Z,5.04
2022-11-29T09:10:46.780Z,5.04
2022-11-29T09:11:49.348Z,5.07
2022-11-29T09:12:46.800Z,5.07
2022-11-29T09:13:46.800Z,5.07
2022-11-29T09:14:47.002Z,5.06
2022-11-29T09:15:46.823Z,5.09
2022-11-29T09:16:46.854Z,5.10
2022-11-29T09:17:46.826Z,5.11
2022-11-29T09:18:51.337Z,5.11
2022-11-29T09:19:46.839Z,5.11
2022-11-29T09:20:46.847Z,5.12
2022-11-29T09:21:46.857Z,5.12
2022-11-29T09:22:46.861Z,5.13
2022-11-29T09:23:46.868Z,5.13
2022-11-29T09:24:47.138Z,5.17
2022-11-29T09:25:46.879Z,5.18
2022-11-29T09:26:46.883Z,5.18
2022-11-29T09:27:46.891Z,5.16
2022-11-29T09:28:46.896Z,5.16
2022-11-29T09:29:46.903Z,5.19
2022-11-29T09:30:46.907Z,5.19
2022-11-29T09:31:47.098Z,5.18
2022-11-29T09:32:46.924Z,5.16
2022-11-29T09:33:46.929Z,5.17
2022-11-29T09:34:47.196Z,5.18
2022-11-29T09:35:46.944Z,5.16
2022-11-29T09:36:46.952Z,5.17
2022-11-29T09:37:46.960Z,5.17
2022-11-29T09:38:46.964Z,5.20
2022-11-29T09:39:46.977Z,5.21
2022-11-29T09:40:46.980Z,5.23
2022-11-29T09:41:48.670Z,5.22
2022-11-29T09:42:47.004Z,5.21
2022-11-29T09:43:46.998Z,5.23
2022-11-29T09:44:47.338Z,5.22
2022-11-29T09:45:47.043Z,5.22
2022-11-29T09:46:47.013Z,5.21
2022-11-29T09:47:47.022Z,5.23
2022-11-29T09:48:47.029Z,5.25
2022-11-29T09:49:47.037Z,5.25
2022-11-29T09:50:47.043Z,5.25
2022-11-29T09:51:47.054Z,5.26
2022-11-29T09:52:47.065Z,5.30
2022-11-29T09:53:47.070Z,5.27
2022-11-29T09:54:47.295Z,5.27
2022-11-29T09:55:47.091Z,5.30
2022-11-29T09:56:47.094Z,5.36
2022-11-29T09:57:47.102Z,5.36
2022-11-29T09:58:47.143Z,5.36
2022-11-29T09:59:47.114Z,5.40
2022-11-29T10:00:47.168Z,5.40
2022-11-29T10:01:47.132Z,5.44
2022-11-29T10:02:47.166Z,5.46
2022-11-29T10:03:47.148Z,5.46
2022-11-29T10:04:47.297Z,5.50
2022-11-29T10:05:47.160Z,5.50
2022-11-29T10:06:47.166Z,5.48
2022-11-29T10:07:47.232Z,5.54
2022-11-29T10:08:47.181Z,5.53
2022-11-29T10:09:47.187Z,5.53
2022-11-29T10:10:47.194Z,5.55
2022-11-29T10:11:47.198Z,5.57
2022-11-29T10:12:47.205Z,5.56
2022-11-29T10:13:47.210Z,5.57
2022-11-29T10:14:47.495Z,5.56
2022-11-29T10:15:47.227Z,5.55
2022-11-29T10:16:47.293Z,5.54
2022-11-29T10:17:47.238Z,5.56
2022-11-29T10:18:47.248Z,5.52
2022-11-29T10:19:47.254Z,5.54
2022-11-29T10:20:49.117Z,5.56
2022-11-29T10:21:47.264Z,5.55
2022-11-29T10:22:47.276Z,5.53
2022-11-29T10:23:47.281Z,5.54
2022-11-29T10:24:47.503Z,5.55
2022-11-29T10:25:47.299Z,5.54
2022-11-29T10:26:47.302Z,5.54
2022-11-29T10:27:47.312Z,5.55
2022-11-29T10:28:47.313Z,5.57
2022-11-29T10:29:47.321Z,5.56
2022-11-29T10:30:47.422Z,5.57
2022-11-29T10:31:47.339Z,5.55
2022-11-29T10:32:47.350Z,5.56
2022-11-29T10:33:47.354Z,5.54
2022-11-29T10:34:47.635Z,5.57
2022-11-29T10:35:47.367Z,5.57
2022-11-29T10:36:47.381Z,5.53
2022-11-29T10:38:01.714Z,5.52
2022-11-29T10:38:47.400Z,5.55
2022-11-29T10:39:47.411Z,5.53
2022-11-29T10:40:47.439Z,5.53
2022-11-29T10:41:47.422Z,5.55
2022-11-29T10:42:47.438Z,5.57
2022-11-29T10:43:47.435Z,5.60
2022-11-29T10:44:47.682Z,5.60
2022-11-29T10:45:49.997Z,5.62
2022-11-29T10:46:47.456Z,5.63
2022-11-29T10:47:47.468Z,5.62
2022-11-29T10:48:47.473Z,5.63
2022-11-29T10:49:47.476Z,5.62
2022-11-29T10:50:47.482Z,5.62
2022-11-29T10:51:47.489Z,5.61
2022-11-29T10:52:47.496Z,5.62
2022-11-29T10:53:47.504Z,5.59
2022-11-29T10:54:47.799Z,5.58
2022-11-29T10:55:47.515Z,5.60
2022-11-29T10:56:47.521Z,5.59
2022-11-29T10:57:47.530Z,5.63
2022-11-29T10:58:47.537Z,5.63
2022-11-29T10:59:47.597Z,5.64
2022-11-29T11:00:47.555Z,5.71
2022-11-29T11:01:47.596Z,5.70
2022-11-29T11:02:47.570Z,5.73
2022-11-29T11:03:51.484Z,5.73
2022-11-29T11:04:47.912Z,5.76
2022-11-29T11:05:47.635Z,5.76
2022-11-29T11:06:47.597Z,5.77
2022-11-29T11:07:47.670Z,5.83
2022-11-29T11:08:47.615Z,5.82
2022-11-29T11:09:47.623Z,5.86
2022-11-29T11:10:52.545Z,5.83
2022-11-29T11:11:47.632Z,5.82
2022-11-29T11:12:47.639Z,5.84
2022-11-29T11:13:47.643Z,5.80
2022-11-29T11:14:47.948Z,5.78
2022-11-29T11:15:47.656Z,5.78
2022-11-29T11:16:47.688Z,5.79
2022-11-29T11:17:47.673Z,5.77
2022-11-29T11:18:47.680Z,5.73
2022-11-29T11:19:47.690Z,5.74
2022-11-29T11:20:47.695Z,5.74
2022-11-29T11:21:47.703Z,5.71
2022-11-29T11:22:47.711Z,5.74
2022-11-29T11:23:47.719Z,5.77
2022-11-29T11:24:47.848Z,5.77
2022-11-29T11:25:47.734Z,5.74
2022-11-29T11:26:47.741Z,5.73
2022-11-29T11:27:47.749Z,5.74
2022-11-29T11:28:47.755Z,5.73
2022-11-29T11:29:47.765Z,5.75
2022-11-29T11:30:47.790Z,5.75
2022-11-29T11:31:47.780Z,5.75
2022-11-29T11:32:47.787Z,5.71
2022-11-29T11:33:47.794Z,5.70
2022-11-29T11:34:47.878Z,5.71
2022-11-29T11:35:47.812Z,5.73
2022-11-29T11:36:47.821Z,5.73
2022-11-29T11:37:47.825Z,5.75
2022-11-29T11:38:47.832Z,5.78
2022-11-29T11:39:47.890Z,5.80
2022-11-29T11:40:47.844Z,5.83
2022-11-29T11:41:47.851Z,5.82
2022-11-29T11:42:47.857Z,5.77
2022-11-29T11:43:47.862Z,5.77
2022-11-29T11:44:48.362Z,5.75
2022-11-29T11:45:47.921Z,5.74
2022-11-29T11:46:47.925Z,5.75
2022-11-29T11:47:47.894Z,5.75
2022-11-29T11:48:47.899Z,5.76
2022-11-29T11:49:47.903Z,5.74
2022-11-29T11:50:47.914Z,5.75
2022-11-29T11:51:47.920Z,5.75
2022-11-29T11:52:50.537Z,5.78
2022-11-29T11:53:47.943Z,5.75
2022-11-29T11:54:47.945Z,5.77
2022-11-29T11:55:47.960Z,5.79
2022-11-29T11:56:47.961Z,5.79
2022-11-29T11:57:47.975Z,5.81
2022-11-29T11:58:47.974Z,5.85
2022-11-29T11:59:47.985Z,5.85
2022-11-29T12:01:03.271Z,5.88
2022-11-29T12:01:48.000Z,5.91
2022-11-29T12:02:48.053Z,5.90
2022-11-29T12:03:48.026Z,5.91
2022-11-29T12:04:48.024Z,5.90
2022-11-29T12:05:48.028Z,5.90
2022-11-29T12:06:48.040Z,5.87
2022-11-29T12:08:48.084Z,5.87
2022-11-29T12:09:48.059Z,5.89
2022-11-29T12:10:48.070Z,5.90
2022-11-29T12:11:48.076Z,5.93
2022-11-29T12:12:48.081Z,5.93
2022-11-29T12:13:48.093Z,5.94
2022-11-29T12:14:48.267Z,5.92
2022-11-29T12:15:48.162Z,5.93
2022-11-29T12:16:48.125Z,5.94
2022-11-29T12:17:48.126Z,5.92
2022-11-29T12:18:48.134Z,5.93
2022-11-29T12:19:48.144Z,5.95
2022-11-29T12:20:48.155Z,5.98
2022-11-29T12:21:48.160Z,5.95
2022-11-29T12:22:48.639Z,5.98
2022-11-29T12:23:48.177Z,6.00
2022-11-29T12:24:48.444Z,5.99
2022-11-29T12:25:48.296Z,6.01
2022-11-29T12:26:56.779Z,6.00
2022-11-29T12:27:48.203Z,5.99
2022-11-29T12:28:48.208Z,6.02
2022-11-29T12:29:48.264Z,6.00
2022-11-29T12:30:48.244Z,6.00
2022-11-29T12:31:48.231Z,6.01
2022-11-29T12:32:48.242Z,6.00
2022-11-29T12:33:48.249Z,6.02
2022-11-29T12:34:48.656Z,5.99
2022-11-29T12:35:48.269Z,6.02
2022-11-29T12:36:48.276Z,5.99
2022-11-29T12:37:48.286Z,6.00
2022-11-29T12:38:48.293Z,5.99
2022-11-29T12:39:48.301Z,6.00
2022-11-29T12:40:48.316Z,5.98
2022-11-29T12:41:52.532Z,5.97
2022-11-29T12:42:48.326Z,5.93
2022-11-29T12:43:48.329Z,5.91
2022-11-29T12:44:48.561Z,5.88
2022-11-29T12:45:48.347Z,5.85
2022-11-29T12:46:48.370Z,5.88
2022-11-29T12:47:51.809Z,5.84
2022-11-29T12:48:48.373Z,5.84
2022-11-29T12:49:48.383Z,5.86
2022-11-29T12:50:48.393Z,5.87
2022-11-29T12:51:48.405Z,5.86
2022-11-29T12:52:48.420Z,5.86
2022-11-29T12:53:48.420Z,5.87
2022-11-29T12:54:48.582Z,5.88
2022-11-29T12:55:48.440Z,5.89
2022-11-29T12:56:48.449Z,5.88
2022-11-29T12:57:48.454Z,5.92
2022-11-29T12:58:48.463Z,5.89
2022-11-29T12:59:48.472Z,5.92
2022-11-29T13:00:48.482Z,5.93
2022-11-29T13:01:48.554Z,5.96
2022-11-29T13:02:48.550Z,5.97
2022-11-29T13:03:48.500Z,5.94
2022-11-29T13:04:48.725Z,5.91
2022-11-29T13:05:48.516Z,5.90
2022-11-29T13:06:48.522Z,5.89
2022-11-29T13:07:48.566Z,5.88
2022-11-29T13:08:48.537Z,5.88
2022-11-29T13:09:48.674Z,5.87
2022-11-29T13:10:48.557Z,5.89
2022-11-29T13:11:48.567Z,5.87
2022-11-29T13:12:48.569Z,5.89
2022-11-29T13:13:48.578Z,5.89
2022-11-29T13:14:48.587Z,5.87
2022-11-29T13:15:49.732Z,5.86
2022-11-29T13:16:48.640Z,5.84
2022-11-29T13:17:48.607Z,5.85
2022-11-29T13:18:48.616Z,5.85
2022-11-29T13:19:48.624Z,5.83
2022-11-29T13:20:48.631Z,5.80
2022-11-29T13:21:48.638Z,5.80
2022-11-29T13:22:48.646Z,5.82
2022-11-29T13:24:49.092Z,5.78
2022-11-29T13:25:48.671Z,5.78
2022-11-29T13:26:48.680Z,5.77
2022-11-29T13:27:48.688Z,5.77
2022-11-29T13:28:48.692Z,5.77
2022-11-29T13:29:48.719Z,5.78
2022-11-29T13:30:48.771Z,5.77
2022-11-29T13:31:48.716Z,5.79
2022-11-29T13:32:48.722Z,5.76
2022-11-29T13:33:48.726Z,5.73
2022-11-29T13:34:48.735Z,5.75
2022-11-29T13:35:48.739Z,5.75
2022-11-29T13:36:48.745Z,5.76
2022-11-29T13:37:53.640Z,5.79
2022-11-29T13:38:48.761Z,5.78